createdAt,value
2022-11-09T00:00:48.794Z,11.70
2022-11-09T00:03:15.810Z,11.70
2022-11-09T00:05:44.912Z,11.70
2022-11-09T00:08:12.119Z,11.70
2022-11-09T00:10:39.219Z,11.60
2022-11-09T00:13:06.398Z,11.60
2022-11-09T00:15:33.246Z,11.60
2022-11-09T00:18:02.739Z,11.60
2022-11-09T00:20:29.778Z,11.60
2022-11-09T00:22:57.132Z,11.60
2022-11-09T00:25:24.540Z,11.50
2022-11-09T00:27:51.528Z,11.50
2022-11-09T00:30:18.574Z,11.50
2022-11-09T00:32:45.523Z,11.50
2022-11-09T00:35:12.396Z,11.50
2022-11-09T00:37:39.649Z,11.50
2022-11-09T00:40:07.505Z,11.50
2022-11-09T00:42:34.324Z,11.50
2022-11-09T00:45:01.150Z,11.50
2022-11-09T00:47:28.037Z,11.50
2022-11-09T00:49:55.785Z,11.40
2022-11-09T00:52:22.616Z,11.40
2022-11-09T00:54:49.740Z,11.40
2022-11-09T00:57:17.210Z,11.40
2022-11-09T00:59:44.153Z,11.40
2022-11-09T01:02:11.171Z,11.30
2022-11-09T01:04:38.084Z,11.30
2022-11-09T01:07:06.848Z,11.20
2022-11-09T01:09:34.013Z,11.20
2022-11-09T01:12:00.913Z,11.10
2022-11-09T01:14:27.717Z,11.10
2022-11-09T01:16:54.691Z,11.10
2022-11-09T01:19:21.508Z,11.10
2022-11-09T01:21:48.353Z,11.10
2022-11-09T01:24:15.211Z,11.10
2022-11-09T01:26:42.050Z,11.00
2022-11-09T01:29:08.897Z,11.10
2022-11-09T01:31:35.905Z,11.00
2022-11-09T01:34:02.999Z,11.00
2022-11-09T01:36:30.246Z,11.00
2022-11-09T01:38:57.125Z,11.00
2022-11-09T01:41:27.251Z,11.00
2022-11-09T01:44:03.332Z,11.00
2022-11-09T01:46:51.368Z,10.90
2022-11-09T01:49:27.119Z,11.00
2022-11-09T01:52:02.914Z,10.90
2022-11-09T01:54:36.239Z,10.90
2022-11-09T01:57:15.279Z,10.90
2022-11-09T01:59:47.858Z,10.90
2022-11-09T02:02:15.149Z,10.90
2022-11-09T02:04:49.598Z,10.90
2022-11-09T02:07:17.161Z,10.90
2022-11-09T02:09:50.403Z,10.90
2022-11-09T02:12:18.656Z,11.00
2022-11-09T02:14:48.691Z,11.00
2022-11-09T02:17:15.856Z,11.00
2022-11-09T02:19:42.768Z,10.90
2022-11-09T02:22:09.762Z,10.90
2022-11-09T02:24:36.695Z,10.90
2022-11-09T02:27:06.565Z,10.90
2022-11-09T02:29:37.395Z,10.90
2022-11-09T02:32:09.997Z,11.00
2022-11-09T02:34:36.988Z,10.90
2022-11-09T02:37:04.092Z,10.90
2022-11-09T02:39:31.192Z,10.90
2022-11-09T02:42:09.909Z,10.90
2022-11-09T02:44:40.979Z,10.80
2022-11-09T02:47:08.236Z,10.90
2022-11-09T02:49:35.246Z,10.90
2022-11-09T02:52:02.240Z,10.90
2022-11-09T02:54:29.237Z,10.90
2022-11-09T02:56:56.209Z,10.90
2022-11-09T02:59:23.114Z,10.90
2022-11-09T03:01:50.097Z,10.90
2022-11-09T03:04:16.997Z,10.90
2022-11-09T03:06:44.378Z,10.90
2022-11-09T03:09:12.602Z,10.90
2022-11-09T03:11:41.062Z,10.90
2022-11-09T03:14:09.922Z,10.90
2022-11-09T03:16:40.083Z,10.90
2022-11-09T03:19:07.633Z,10.90
2022-11-09T03:21:35.416Z,10.90
2022-11-09T03:24:02.369Z,10.90
2022-11-09T03:26:29.539Z,10.90
2022-11-09T03:28:56.327Z,10.80
2022-11-09T03:31:23.227Z,10.80
2022-11-09T03:33:50.214Z,10.80
2022-11-09T03:36:17.063Z,10.80
2022-11-09T03:38:43.901Z,10.80
2022-11-09T03:41:10.738Z,10.80
2022-11-09T03:43:37.584Z,10.80
2022-11-09T03:46:04.471Z,10.70
2022-11-09T03:48:31.459Z,10.70
2022-11-09T03:50:58.393Z,10.70
2022-11-09T03:53:25.414Z,10.60
2022-11-09T03:55:52.183Z,10.60
2022-11-09T03:58:18.990Z,10.70
2022-11-09T04:00:45.983Z,10.70
2022-11-09T04:03:12.864Z,10.60
2022-11-09T04:05:39.743Z,10.50
2022-11-09T04:08:06.609Z,10.40
2022-11-09T04:10:38.089Z,10.50
2022-11-09T04:13:04.921Z,10.40
2022-11-09T04:15:31.770Z,10.40
2022-11-09T04:18:00.189Z,10.40
2022-11-09T04:20:28.855Z,10.30
2022-11-09T04:23:01.753Z,10.30
2022-11-09T04:25:32.649Z,10.30
2022-11-09T04:28:00.699Z,10.30
2022-11-09T04:30:29.536Z,10.20
2022-11-09T04:32:57.330Z,10.20
2022-11-09T04:35:24.893Z,10.10
2022-11-09T04:37:58.482Z,10.00
2022-11-09T04:40:27.823Z,10.00
2022-11-09T04:42:55.339Z,10.00
2022-11-09T04:45:22.560Z,10.00
2022-11-09T04:47:49.504Z,9.90
2022-11-09T04:50:16.615Z,9.90
2022-11-09T04:52:43.545Z,9.80
2022-11-09T04:55:10.474Z,9.80
2022-11-09T04:57:38.099Z,9.80
2022-11-09T05:00:05.535Z,9.70
2022-11-09T05:02:32.888Z,9.70
2022-11-09T05:05:00.097Z,9.70
2022-11-09T05:07:27.062Z,9.70
2022-11-09T05:09:53.942Z,9.60
2022-11-09T05:12:21.073Z,9.60
2022-11-09T05:14:48.014Z,9.60
2022-11-09T05:17:15.523Z,9.50
2022-11-09T05:19:42.440Z,9.50
2022-11-09T05:22:27.716Z,9.40
2022-11-09T05:24:54.869Z,9.40
2022-11-09T05:27:22.033Z,9.40
2022-11-09T05:29:49.018Z,9.30
2022-11-09T05:32:16.161Z,9.30
2022-11-09T05:34:43.363Z,9.40
2022-11-09T05:37:10.416Z,9.40
2022-11-09T05:39:37.744Z,9.40
2022-11-09T05:42:05.333Z,9.40
2022-11-09T05:44:32.539Z,9.40
2022-11-09T05:47:01.593Z,9.40
2022-11-09T05:49:45.817Z,9.40
2022-11-09T05:52:16.810Z,9.40
2022-11-09T06:11:55.143Z,9.40
2022-11-09T06:19:00.226Z,9.40
2022-11-09T06:26:11.447Z,9.40
2022-11-09T06:29:00.233Z,9.40
2022-11-09T06:32:11.522Z,9.50
2022-11-09T06:35:31.038Z,9.50
2022-11-09T06:38:40.501Z,9.40
2022-11-09T06:41:22.984Z,9.50
2022-11-09T06:44:32.148Z,9.50
2022-11-09T07:02:15.274Z,9.70
2022-11-09T07:24:33.192Z,10.00
2022-11-09T07:47:07.582Z,10.60
2022-11-09T07:49:47.774Z,10.60
2022-11-09T07:55:43.081Z,10.90
2022-11-09T07:58:24.081Z,11.00
2022-11-09T08:01:11.966Z,11.10
2022-11-09T08:03:45.129Z,11.30
2022-11-09T08:06:18.351Z,11.50
2022-11-09T08:12:04.679Z,11.70
2022-11-09T08:14:34.519Z,11.70
2022-11-09T08:17:02.156Z,11.60
2022-11-09T08:19:39.632Z,11.50
2022-11-09T08:22:11.185Z,11.50
2022-11-09T08:24:43.729Z,11.30
2022-11-09T08:27:11.003Z,11.20
2022-11-09T08:29:38.687Z,11.20
2022-11-09T08:32:27.044Z,11.20
2022-11-09T08:35:20.120Z,11.30
2022-11-09T08:38:04.566Z,11.20
2022-11-09T08:44:09.516Z,11.20
2022-11-09T08:47:01.141Z,11.10
2022-11-09T08:58:24.211Z,11.20
2022-11-09T09:10:09.156Z,11.00
2022-11-09T09:16:45.317Z,11.00
2022-11-09T09:28:37.520Z,11.10
2022-11-09T09:31:23.590Z,11.10
2022-11-09T09:33:52.328Z,11.20
2022-11-09T09:36:27.106Z,11.20
2022-11-09T09:38:55.119Z,11.30
2022-11-09T09:42:06.112Z,11.30
2022-11-09T09:45:54.652Z,11.40
2022-11-09T09:49:00.160Z,11.40
2022-11-09T09:52:09.445Z,11.40
2022-11-09T09:56:02.836Z,11.40
2022-11-09T10:32:04.994Z,16.80
2022-11-09T10:35:21.722Z,16.40
2022-11-09T10:37:55.582Z,16.90
2022-11-09T10:40:49.010Z,18.10
2022-11-09T10:47:12.221Z,17.60
2022-11-09T11:00:57.830Z,16.30
2022-11-09T11:17:36.619Z,15.00
2022-11-09T11:23:59.320Z,13.70
2022-11-09T11:33:42.936Z,12.80
2022-11-09T11:41:33.351Z,13.30
2022-11-09T11:46:46.326Z,13.50
2022-11-09T11:53:24.736Z,13.00
2022-11-09T11:57:02.528Z,12.80
2022-11-09T12:00:10.170Z,12.60
2022-11-09T12:03:22.752Z,12.50
2022-11-09T12:06:24.058Z,12.50
2022-11-09T12:09:24.656Z,12.50
2022-11-09T12:12:33.779Z,12.50
2022-11-09T12:15:31.325Z,12.60
2022-11-09T12:18:41.047Z,12.50
2022-11-09T12:21:16.183Z,12.40
2022-11-09T12:24:03.057Z,12.40
2022-11-09T12:27:04.674Z,12.40
2022-11-09T12:30:14.962Z,12.30
2022-11-09T12:33:03.871Z,12.40
2022-11-09T12:36:31.942Z,12.40
2022-11-09T12:39:06.209Z,12.30
2022-11-09T12:41:41.910Z,12.20
2022-11-09T12:44:19.093Z,12.10
2022-11-09T12:47:04.601Z,12.10
2022-11-09T12:49:43.243Z,12.00
2022-11-09T12:52:21.091Z,11.90
2022-11-09T12:54:52.531Z,11.80
2022-11-09T12:57:33.836Z,11.80
2022-11-09T13:00:34.037Z,11.70
2022-11-09T13:03:06.663Z,11.70
2022-11-09T13:05:38.684Z,11.60
2022-11-09T13:08:08.832Z,11.60
2022-11-09T13:10:39.665Z,11.50
2022-11-09T13:13:13.567Z,11.50
2022-11-09T13:16:26.942Z,11.50
2022-11-09T13:18:54.657Z,11.40
2022-11-09T13:21:21.559Z,11.40
2022-11-09T13:24:09.182Z,11.40
2022-11-09T13:26:37.801Z,11.40
2022-11-09T13:29:27.710Z,11.40
2022-11-09T13:32:12.766Z,11.40
2022-11-09T13:34:56.632Z,11.40
2022-11-09T13:37:38.944Z,11.40
2022-11-09T13:40:30.939Z,11.40
2022-11-09T13:43:01.606Z,11.30
2022-11-09T13:45:36.682Z,11.30
2022-11-09T13:48:06.128Z,11.30
2022-11-09T13:50:35.374Z,11.40
2022-11-09T13:53:03.655Z,11.30
2022-11-09T13:55:42.191Z,11.30
2022-11-09T13:58:35.509Z,11.30
2022-11-09T14:01:03.000Z,11.30
2022-11-09T14:03:31.575Z,11.30
2022-11-09T14:06:01.434Z,11.30
2022-11-09T14:08:33.892Z,11.30
2022-11-09T14:11:28.062Z,11.20
2022-11-09T14:14:13.993Z,11.20
2022-11-09T14:16:55.146Z,11.20
2022-11-09T14:19:41.176Z,11.20
2022-11-09T14:22:17.104Z,11.20
2022-11-09T14:24:44.488Z,11.10
2022-11-09T14:27:11.722Z,11.10
2022-11-09T14:29:56.761Z,11.10
2022-11-09T14:32:35.858Z,11.10
2022-11-09T14:35:12.250Z,11.10
2022-11-09T14:37:44.335Z,11.10
2022-11-09T14:40:28.067Z,11.10
2022-11-09T14:43:01.065Z,11.00
2022-11-09T14:45:29.063Z,11.00
2022-11-09T14:48:02.128Z,11.00
2022-11-09T14:50:37.001Z,11.00
2022-11-09T14:53:05.946Z,10.90
2022-11-09T14:55:35.391Z,11.00
2022-11-09T14:58:03.628Z,11.00
2022-11-09T15:00:34.631Z,10.90
2022-11-09T15:03:26.149Z,10.90
2022-11-09T15:06:15.048Z,10.80
2022-11-09T15:08:54.274Z,10.80
2022-11-09T15:11:30.796Z,10.80
2022-11-09T15:13:58.184Z,10.80
2022-11-09T15:16:29.509Z,10.70
2022-11-09T15:18:56.444Z,10.60
2022-11-09T15:21:26.446Z,10.60
2022-11-09T15:24:08.881Z,10.70
2022-11-09T15:26:39.907Z,10.60
2022-11-09T15:29:41.740Z,10.60
2022-11-09T15:32:16.627Z,10.50
2022-11-09T15:34:56.024Z,10.60
2022-11-09T15:37:27.303Z,10.60
2022-11-09T15:39:54.762Z,10.60
2022-11-09T15:42:22.936Z,10.60
2022-11-09T15:44:58.544Z,10.60
2022-11-09T15:47:31.873Z,10.60
2022-11-09T15:50:17.288Z,10.60
2022-11-09T15:52:44.475Z,10.60
2022-11-09T15:55:16.963Z,10.50
2022-11-09T15:57:45.025Z,10.50
2022-11-09T16:00:19.507Z,10.50
2022-11-09T16:02:48.011Z,10.50
2022-11-09T16:05:15.986Z,10.50
2022-11-09T16:08:01.177Z,10.50
2022-11-09T16:10:30.502Z,10.40
2022-11-09T16:12:58.212Z,10.50
2022-11-09T16:15:26.162Z,10.40
2022-11-09T16:17:53.310Z,10.50
2022-11-09T16:20:21.647Z,10.40
2022-11-09T16:22:49.323Z,10.40
2022-11-09T16:25:16.713Z,10.50
2022-11-09T16:27:51.947Z,10.60
2022-11-09T16:30:20.217Z,10.60
2022-11-09T16:32:47.125Z,10.50
2022-11-09T16:35:29.291Z,10.40
2022-11-09T16:37:58.342Z,10.40
2022-11-09T16:40:27.059Z,10.30
2022-11-09T16:42:53.977Z,10.30
2022-11-09T16:45:21.884Z,10.30
2022-11-09T16:47:53.024Z,10.30
2022-11-09T16:50:20.213Z,10.30
2022-11-09T16:52:47.192Z,10.30
2022-11-09T16:55:14.730Z,10.30
2022-11-09T16:57:41.788Z,10.30
2022-11-09T17:00:09.481Z,10.20
2022-11-09T17:02:36.333Z,10.20
2022-11-09T17:05:03.582Z,10.10
2022-11-09T17:07:31.976Z,10.10
2022-11-09T17:09:58.966Z,10.10
2022-11-09T17:12:25.965Z,10.10
2022-11-09T17:14:52.913Z,10.10
2022-11-09T17:17:22.825Z,10.10
2022-11-09T17:19:50.003Z,10.10
2022-11-09T17:22:18.062Z,10.10
2022-11-09T17:24:45.131Z,10.10
2022-11-09T17:27:12.899Z,10.00
2022-11-09T17:29:40.474Z,10.00
2022-11-09T17:32:09.501Z,10.10
2022-11-09T17:34:36.770Z,10.10
2022-11-09T17:37:05.581Z,10.10
2022-11-09T17:39:33.593Z,10.10
2022-11-09T17:42:00.665Z,10.10
2022-11-09T17:44:27.605Z,10.10
2022-11-09T17:46:54.735Z,10.00
2022-11-09T17:49:21.592Z,10.10
2022-11-09T17:51:48.694Z,10.10
2022-11-09T17:54:16.293Z,10.10
2022-11-09T17:56:43.317Z,10.20
2022-11-09T17:59:10.959Z,10.20
2022-11-09T18:01:41.489Z,10.20
2022-11-09T18:04:11.099Z,10.20
2022-11-09T18:06:39.114Z,10.20
2022-11-09T18:11:53.488Z,10.30
2022-11-09T18:14:20.873Z,10.30
2022-11-09T18:16:48.067Z,10.30
2022-11-09T18:19:15.046Z,10.30
2022-11-09T18:21:44.474Z,10.20
2022-11-09T18:24:11.819Z,10.20
2022-11-09T18:26:38.928Z,10.20
2022-11-09T18:29:05.917Z,10.30
2022-11-09T18:31:33.010Z,10.20
2022-11-09T18:34:00.199Z,10.20
2022-11-09T18:36:28.044Z,10.10
2022-11-09T18:38:56.121Z,10.10
2022-11-09T18:41:24.748Z,10.20
2022-11-09T18:43:53.992Z,10.10
2022-11-09T18:46:22.054Z,10.10
2022-11-09T18:48:53.572Z,10.10
2022-11-09T18:51:20.979Z,10.10
2022-11-09T18:53:48.774Z,10.20
2022-11-09T18:56:25.106Z,10.10
2022-11-09T18:58:53.804Z,10.00
2022-11-09T19:01:23.269Z,9.90
2022-11-09T19:03:56.271Z,9.90
2022-11-09T19:06:26.522Z,9.80
2022-11-09T19:09:12.374Z,9.90
2022-11-09T19:11:39.463Z,9.90
2022-11-09T19:14:06.763Z,9.80
2022-11-09T19:16:34.325Z,9.80
2022-11-09T19:19:01.162Z,9.80
2022-11-09T19:21:34.353Z,9.80
2022-11-09T19:24:01.764Z,9.80
2022-11-09T19:26:29.227Z,9.70
2022-11-09T19:28:56.313Z,9.60
2022-11-09T19:31:24.847Z,9.60
2022-11-09T19:33:52.312Z,9.60
2022-11-09T19:36:30.156Z,9.60
2022-11-09T19:38:58.275Z,9.50
2022-11-09T19:41:25.729Z,9.60
2022-11-09T19:43:56.004Z,9.60
2022-11-09T19:46:23.088Z,9.60
2022-11-09T19:48:50.178Z,9.50
2022-11-09T19:51:18.484Z,9.50
2022-11-09T19:53:53.472Z,9.50
2022-11-09T19:56:22.144Z,9.50
2022-11-09T19:58:55.433Z,9.40
2022-11-09T20:01:23.436Z,9.40
2022-11-09T20:03:52.230Z,9.40
2022-11-09T20:06:20.352Z,9.40
2022-11-09T20:08:48.448Z,9.40
2022-11-09T20:11:37.788Z,9.40
2022-11-09T20:14:05.899Z,9.30
2022-11-09T20:16:34.597Z,9.30
2022-11-09T20:19:03.773Z,9.30
2022-11-09T20:21:31.182Z,9.20
2022-11-09T20:23:58.873Z,9.30
2022-11-09T20:26:25.914Z,9.30
2022-11-09T20:28:54.032Z,9.30
2022-11-09T20:31:22.472Z,9.30
2022-11-09T20:33:51.324Z,9.30
2022-11-09T20:36:19.123Z,9.30
2022-11-09T20:38:47.192Z,9.30
2022-11-09T20:41:14.520Z,9.30
2022-11-09T20:43:41.942Z,9.30
2022-11-09T20:46:15.023Z,9.30
2022-11-09T20:48:58.994Z,9.30
2022-11-09T20:51:26.290Z,9.40
2022-11-09T20:53:53.287Z,9.40
2022-11-09T20:56:20.967Z,9.40
2022-11-09T20:58:48.323Z,9.40
2022-11-09T21:01:18.772Z,9.50
2022-11-09T21:03:47.145Z,9.40
2022-11-09T21:06:14.801Z,9.50
2022-11-09T21:08:45.321Z,9.50
2022-11-09T21:11:14.962Z,9.50
2022-11-09T21:13:44.242Z,9.40
2022-11-09T21:16:16.013Z,9.50
2022-11-09T21:18:43.369Z,9.50
2022-11-09T21:21:15.825Z,9.40
2022-11-09T21:24:01.539Z,9.50
2022-11-09T21:26:47.355Z,9.50
2022-11-09T21:29:38.440Z,9.50
2022-11-09T21:32:06.526Z,9.50
2022-11-09T21:34:36.790Z,9.50
2022-11-09T21:37:05.157Z,9.50
2022-11-09T21:39:32.624Z,9.50
2022-11-09T21:42:00.010Z,9.60
2022-11-09T21:44:31.437Z,9.60
2022-11-09T21:46:59.133Z,9.50
2022-11-09T21:49:26.159Z,9.60
2022-11-09T21:51:53.458Z,9.50
2022-11-09T21:54:21.139Z,9.60
2022-11-09T21:56:49.073Z,9.60
2022-11-09T21:59:16.127Z,9.60
2022-11-09T22:01:43.612Z,9.60
2022-11-09T22:04:10.628Z,9.50
2022-11-09T22:06:39.490Z,9.60
2022-11-09T22:09:10.505Z,9.60
2022-11-09T22:11:57.718Z,9.60
2022-11-09T22:14:43.603Z,9.60
2022-11-09T22:17:10.687Z,9.60
2022-11-09T22:19:58.131Z,9.60
2022-11-09T22:22:28.947Z,9.60
2022-11-09T22:24:55.891Z,9.60
2022-11-09T22:27:22.849Z,9.60
2022-11-09T22:29:49.836Z,9.60
2022-11-09T22:32:17.225Z,9.60
2022-11-09T22:34:44.998Z,9.60
2022-11-09T22:37:12.142Z,9.60
2022-11-09T22:39:41.797Z,9.50
2022-11-09T22:42:12.983Z,9.50
2022-11-09T22:44:39.887Z,9.50
2022-11-09T22:47:07.007Z,9.50
2022-11-09T22:49:36.781Z,9.50
2022-11-09T22:52:05.104Z,9.50
2022-11-09T22:54:32.194Z,9.40
2022-11-09T22:56:59.187Z,9.40
2022-11-09T22:59:26.094Z,9.30
2022-11-09T23:01:53.097Z,9.30
2022-11-09T23:04:20.004Z,9.30
2022-11-09T23:06:47.003Z,9.30
2022-11-09T23:09:13.961Z,9.30
2022-11-09T23:11:40.937Z,9.30
2022-11-09T23:14:11.528Z,9.30
2022-11-09T23:16:38.581Z,9.30
2022-11-09T23:19:05.410Z,9.30
2022-11-09T23:21:37.094Z,9.30
2022-11-09T23:24:06.619Z,9.40
2022-11-09T23:26:34.310Z,9.40
2022-11-09T23:29:01.770Z,9.40
2022-11-09T23:31:28.680Z,9.40
2022-11-09T23:33:57.298Z,9.40
2022-11-09T23:36:25.972Z,9.40
2022-11-09T23:38:53.011Z,9.40
2022-11-09T23:41:20.311Z,9.40
2022-11-09T23:43:49.634Z,9.50
2022-11-09T23:46:18.026Z,9.50
2022-11-09T23:48:45.379Z,9.50
2022-11-09T23:51:12.525Z,9.50
2022-11-09T23:53:40.051Z,9.50
2022-11-09T23:56:10.190Z,9.60
2022-11-09T23:58:37.828Z,9.60
